sensor_id;sensor_type;location;lat;lon;timestamp;pressure;altitude;pressure_sealevel;temperature;humidity
34197;BME280;36594;45.192;5.722;2022-09-17T00:01:35;98749.09;;;29.35;35.18
34197;BME280;36594;45.192;5.722;2022-09-17T00:04:24;98749.66;;;29.34;35.14
34197;BME280;36594;45.192;5.722;2022-09-17T00:07:15;98757.70;;;29.33;35.18
34197;BME280;36594;45.192;5.722;2022-09-17T00:10:04;98754.94;;;29.33;35.17
34197;BME280;36594;45.192;5.722;2022-09-17T00:12:53;98770.19;;;29.31;35.19
34197;BME280;36594;45.192;5.722;2022-09-17T00:15:43;98769.91;;;29.30;35.22
34197;BME280;36594;45.192;5.722;2022-09-17T00:18:32;98760.26;;;29.27;35.22
34197;BME280;36594;45.192;5.722;2022-09-17T00:21:23;98760.84;;;29.24;35.29
34197;BME280;36594;45.192;5.722;2022-09-17T00:24:13;98761.67;;;29.25;35.24
34197;BME280;36594;45.192;5.722;2022-09-17T00:27:02;98770.86;;;29.20;35.36
34197;BME280;36594;45.192;5.722;2022-09-17T00:29:51;98771.69;;;29.21;35.33
34197;BME280;36594;45.192;5.722;2022-09-17T00:32:40;98773.93;;;29.19;35.37
34197;BME280;36594;45.192;5.722;2022-09-17T00:35:29;98778.91;;;29.19;35.38
34197;BME280;36594;45.192;5.722;2022-09-17T00:38:17;98772.55;;;29.16;35.40
34197;BME280;36594;45.192;5.722;2022-09-17T00:41:07;98773.66;;;29.15;35.40
34197;BME280;36594;45.192;5.722;2022-09-17T00:43:57;98772.02;;;29.14;35.44
34197;BME280;36594;45.192;5.722;2022-09-17T00:46:47;98771.74;;;29.13;35.45
34197;BME280;36594;45.192;5.722;2022-09-17T00:49:37;98780.34;;;29.12;35.43
34197;BME280;36594;45.192;5.722;2022-09-17T00:52:42;98776.20;;;29.12;35.37
34197;BME280;36594;45.192;5.722;2022-09-17T00:55:36;98790.03;;;29.12;35.28
34197;BME280;36594;45.192;5.722;2022-09-17T00:58:25;98785.08;;;29.09;35.27
34197;BME280;36594;45.192;5.722;2022-09-17T01:01:14;98798.09;;;29.06;35.28
34197;BME280;36594;45.192;5.722;2022-09-17T01:04:02;98796.16;;;29.06;35.28
34197;BME280;36594;45.192;5.722;2022-09-17T01:07:11;98805.30;;;29.07;35.21
34197;BME280;36594;45.192;5.722;2022-09-17T01:10:18;98809.97;;;29.09;35.16
34197;BME280;36594;45.192;5.722;2022-09-17T01:16:33;98817.54;;;29.01;35.15
34197;BME280;36594;45.192;5.722;2022-09-17T01:26:22;98842.22;;;28.92;35.15
34197;BME280;36594;45.192;5.722;2022-09-17T01:29:32;98852.20;;;28.91;35.18
34197;BME280;36594;45.192;5.722;2022-09-17T01:32:25;98852.73;;;28.93;35.09
34197;BME280;36594;45.192;5.722;2022-09-17T01:45:18;98851.65;;;28.91;35.05
34197;BME280;36594;45.192;5.722;2022-09-17T01:47:28;98850.29;;;28.89;35.06
34197;BME280;36594;45.192;5.722;2022-09-17T01:50:20;98856.38;;;28.88;35.08
34197;BME280;36594;45.192;5.722;2022-09-17T01:53:05;98846.37;;;28.92;35.02
34197;BME280;36594;45.192;5.722;2022-09-17T01:55:57;98853.56;;;28.93;35.05
34197;BME280;36594;45.192;5.722;2022-09-17T01:58:49;98862.69;;;28.94;34.96
34197;BME280;36594;45.192;5.722;2022-09-17T02:01:39;98865.67;;;28.97;34.87
34197;BME280;36594;45.192;5.722;2022-09-17T02:04:39;98857.93;;;28.97;34.80
34197;BME280;36594;45.192;5.722;2022-09-17T02:07:27;98867.34;;;28.98;34.77
34197;BME280;36594;45.192;5.722;2022-09-17T02:10:23;98865.11;;;29.00;34.74
34197;BME280;36594;45.192;5.722;2022-09-17T02:13:20;98865.66;;;29.00;34.72
34197;BME280;36594;45.192;5.722;2022-09-17T02:16:15;98862.59;;;29.01;34.73
34197;BME280;36594;45.192;5.722;2022-09-17T02:19:22;98877.80;;;29.01;34.70
34197;BME280;36594;45.192;5.722;2022-09-17T02:22:27;98874.76;;;29.03;34.71
34197;BME280;36594;45.192;5.722;2022-09-17T02:25:30;98873.12;;;28.99;34.76
34197;BME280;36594;45.192;5.722;2022-09-17T02:28:53;98865.66;;;29.00;34.73
34197;BME280;36594;45.192;5.722;2022-09-17T02:31:36;98873.95;;;29.00;34.72
34197;BME280;36594;45.192;5.722;2022-09-17T02:34:28;98879.81;;;28.96;34.76
34197;BME280;36594;45.192;5.722;2022-09-17T02:37:17;98873.41;;;29.00;34.68
34197;BME280;36594;45.192;5.722;2022-09-17T02:40:09;98879.18;;;29.01;34.64
34197;BME280;36594;45.192;5.722;2022-09-17T02:43:07;98879.16;;;29.04;34.61
34197;BME280;36594;45.192;5.722;2022-09-17T02:46:16;98874.76;;;29.03;34.61
34197;BME280;36594;45.192;5.722;2022-09-17T02:55:21;98885.30;;;29.01;34.55
34197;BME280;36594;45.192;5.722;2022-09-17T03:02:06;98899.39;;;28.99;34.61
34197;BME280;36594;45.192;5.722;2022-09-17T03:04:27;98901.93;;;28.96;34.64
34197;BME280;36594;45.192;5.722;2022-09-17T03:07:18;98901.63;;;28.97;34.58
34197;BME280;36594;45.192;5.722;2022-09-17T03:10:07;98894.39;;;29.01;34.52
34197;BME280;36594;45.192;5.722;2022-09-17T03:12:56;98895.48;;;29.05;34.48
34197;BME280;36594;45.192;5.722;2022-09-17T03:15:44;98897.41;;;29.05;34.47
34197;BME280;36594;45.192;5.722;2022-09-17T03:18:32;98907.09;;;29.05;34.42
34197;BME280;36594;45.192;5.722;2022-09-17T03:21:23;98901.56;;;29.05;34.47
34197;BME280;36594;45.192;5.722;2022-09-17T03:24:13;98910.11;;;29.06;34.45
34197;BME280;36594;45.192;5.722;2022-09-17T03:27:05;98900.16;;;29.07;34.46
34197;BME280;36594;45.192;5.722;2022-09-17T03:29:53;98901.81;;;29.06;34.43
34197;BME280;36594;45.192;5.722;2022-09-17T03:32:42;98903.52;;;29.02;34.49
34197;BME280;36594;45.192;5.722;2022-09-17T03:35:30;98901.30;;;29.01;34.52
34197;BME280;36594;45.192;5.722;2022-09-17T03:38:18;98903.25;;;29.03;34.50
34197;BME280;36594;45.192;5.722;2022-09-17T03:41:07;98904.34;;;29.02;34.51
34197;BME280;36594;45.192;5.722;2022-09-17T03:43:55;98907.34;;;29.06;34.45
34197;BME280;36594;45.192;5.722;2022-09-17T03:46:44;98909.30;;;29.05;34.39
34197;BME280;36594;45.192;5.722;2022-09-17T03:49:32;98916.49;;;29.04;34.41
34197;BME280;36594;45.192;5.722;2022-09-17T03:52:21;98913.73;;;29.04;34.42
34197;BME280;36594;45.192;5.722;2022-09-17T03:55:09;98922.61;;;29.03;34.39
34197;BME280;36594;45.192;5.722;2022-09-17T03:57:59;98921.47;;;29.04;34.39
34197;BME280;36594;45.192;5.722;2022-09-17T04:00:48;98924.52;;;29.05;34.40
34197;BME280;36594;45.192;5.722;2022-09-17T04:03:38;98909.30;;;29.05;34.39
34197;BME280;36594;45.192;5.722;2022-09-17T04:06:26;98912.09;;;29.03;34.37
34197;BME280;36594;45.192;5.722;2022-09-17T04:09:15;98918.16;;;29.05;34.34
34197;BME280;36594;45.192;5.722;2022-09-17T04:12:03;98924.54;;;29.03;34.37
34197;BME280;36594;45.192;5.722;2022-09-17T04:14:51;98924.26;;;29.02;34.34
34197;BME280;36594;45.192;5.722;2022-09-17T04:17:40;98922.33;;;29.02;34.33
34197;BME280;36594;45.192;5.722;2022-09-17T04:20:28;98928.69;;;29.03;34.31
34197;BME280;36594;45.192;5.722;2022-09-17T04:23:17;98930.91;;;29.03;34.31
34197;BME280;36594;45.192;5.722;2022-09-17T04:26:06;98923.41;;;29.04;34.25
34197;BME280;36594;45.192;5.722;2022-09-17T04:28:55;98921.22;;;29.03;34.30
34197;BME280;36594;45.192;5.722;2022-09-17T04:31:45;98932.00;;;29.02;34.33
34197;BME280;36594;45.192;5.722;2022-09-17T04:34:33;98926.21;;;28.99;34.37
34197;BME280;36594;45.192;5.722;2022-09-17T04:37:22;98929.54;;;29.01;34.36
34197;BME280;36594;45.192;5.722;2022-09-17T04:40:11;98929.79;;;29.02;34.29
34197;BME280;36594;45.192;5.722;2022-09-17T04:43:02;98940.58;;;29.03;34.25
34197;BME280;36594;45.192;5.722;2022-09-17T04:45:50;98948.31;;;29.01;34.28
34197;BME280;36594;45.192;5.722;2022-09-17T04:48:40;98950.28;;;29.01;34.23
34197;BME280;36594;45.192;5.722;2022-09-17T04:51:31;98949.45;;;29.00;34.26
34197;BME280;36594;45.192;5.722;2022-09-17T04:54:25;98953.05;;;29.01;34.26
34197;BME280;36594;45.192;5.722;2022-09-17T04:57:15;98959.98;;;28.98;34.23
34197;BME280;36594;45.192;5.722;2022-09-17T05:00:05;98959.14;;;28.98;34.25
34197;BME280;36594;45.192;5.722;2022-09-17T05:02:55;98956.63;;;28.99;34.26
34197;BME280;36594;45.192;5.722;2022-09-17T05:05:44;98962.75;;;28.98;34.24
34197;BME280;36594;45.192;5.722;2022-09-17T05:08:32;98964.13;;;28.98;34.24
34197;BME280;36594;45.192;5.722;2022-09-17T05:11:20;98976.84;;;28.97;34.17
34197;BME280;36594;45.192;5.722;2022-09-17T05:14:09;98979.05;;;28.97;34.22
34197;BME280;36594;45.192;5.722;2022-09-17T05:17:01;98977.38;;;28.99;34.15
34197;BME280;36594;45.192;5.722;2022-09-17T05:19:50;98981.81;;;28.97;34.18
34197;BME280;36594;45.192;5.722;2022-09-17T05:22:46;98972.69;;;28.97;34.15
34197;BME280;36594;45.192;5.722;2022-09-17T05:25:30;98983.48;;;28.98;34.11
34197;BME280;36594;45.192;5.722;2022-09-17T05:28:20;98984.89;;;28.96;34.09
34197;BME280;36594;45.192;5.722;2022-09-17T05:31:12;98991.80;;;28.96;34.09
34197;BME280;36594;45.192;5.722;2022-09-17T05:33:59;98992.91;;;28.92;34.15
34197;BME280;36594;45.192;5.722;2022-09-17T05:36:47;98986.55;;;28.92;34.17
34197;BME280;36594;45.192;5.722;2022-09-17T05:39:37;98993.75;;;28.93;34.16
34197;BME280;36594;45.192;5.722;2022-09-17T05:42:29;98999.00;;;28.92;34.13
34197;BME280;36594;45.192;5.722;2022-09-17T05:45:17;99000.66;;;28.93;34.15
34197;BME280;36594;45.192;5.722;2022-09-17T05:48:08;99010.63;;;28.94;34.09
34197;BME280;36594;45.192;5.722;2022-09-17T05:50:56;99013.10;;;28.93;34.12
34197;BME280;36594;45.192;5.722;2022-09-17T05:53:46;99014.77;;;28.94;34.09
34197;BME280;36594;45.192;5.722;2022-09-17T05:56:35;99015.03;;;28.92;34.13
34197;BME280;36594;45.192;5.722;2022-09-17T05:59:24;99020.55;;;28.95;34.10
34197;BME280;36594;45.192;5.722;2022-09-17T06:02:15;99024.70;;;28.95;34.05
34197;BME280;36594;45.192;5.722;2022-09-17T06:05:04;99034.14;;;28.91;34.12
34197;BME280;36594;45.192;5.722;2022-09-17T06:07:52;99020.56;;;28.92;34.39
34197;BME280;36594;45.192;5.722;2022-09-17T06:10:44;99023.31;;;28.95;34.78
34197;BME280;36594;45.192;5.722;2022-09-17T06:13:33;99016.67;;;28.98;34.98
34197;BME280;36594;45.192;5.722;2022-09-17T06:16:22;99027.77;;;28.93;35.35
34197;BME280;36594;45.192;5.722;2022-09-17T06:19:11;99020.56;;;28.92;35.69
34197;BME280;36594;45.192;5.722;2022-09-17T06:21:59;99026.93;;;28.93;35.79
34197;BME280;36594;45.192;5.722;2022-09-17T06:24:49;99017.81;;;28.90;36.23
34197;BME280;36594;45.192;5.722;2022-09-17T06:27:44;99024.16;;;28.93;36.21
34197;BME280;36594;45.192;5.722;2022-09-17T06:30:44;99034.41;;;28.90;36.02
34197;BME280;36594;45.192;5.722;2022-09-17T06:33:33;99052.16;;;28.84;36.20
34197;BME280;36594;45.192;5.722;2022-09-17T06:36:22;99054.56;;;28.95;36.28
34197;BME280;36594;45.192;5.722;2022-09-17T06:39:10;99053.97;;;29.03;36.37
34197;BME280;36594;45.192;5.722;2022-09-17T06:41:59;99051.72;;;29.08;36.37
34197;BME280;36594;45.192;5.722;2022-09-17T06:44:48;99054.42;;;29.13;36.40
34197;BME280;36594;45.192;5.722;2022-09-17T06:47:38;99068.23;;;29.20;36.50
34197;BME280;36594;45.192;5.722;2022-09-17T06:50:26;99061.28;;;29.25;36.94
34197;BME280;36594;45.192;5.722;2022-09-17T06:53:16;99075.64;;;28.86;31.39
34197;BME280;36594;45.192;5.722;2022-09-17T06:56:07;99076.46;;;28.28;28.74
34197;BME280;36594;45.192;5.722;2022-09-17T06:58:56;99090.09;;;27.74;27.73
34197;BME280;36594;45.192;5.722;2022-09-17T07:01:45;99057.56;;;27.63;27.72
34197;BME280;36594;45.192;5.722;2022-09-17T07:04:34;99061.12;;;27.74;28.24
34197;BME280;36594;45.192;5.722;2022-09-17T07:07:22;99083.19;;;27.89;28.98
34197;BME280;36594;45.192;5.722;2022-09-17T07:10:10;99059.42;;;27.90;29.20
34197;BME280;36594;45.192;5.722;2022-09-17T07:12:59;99059.70;;;28.01;29.02
34197;BME280;36594;45.192;5.722;2022-09-17T07:15:59;99059.14;;;28.07;28.53
34197;BME280;36594;45.192;5.722;2022-09-17T07:18:47;99062.69;;;28.15;28.42
34197;BME280;36594;45.192;5.722;2022-09-17T07:21:35;99054.14;;;28.17;28.28
34197;BME280;36594;45.192;5.722;2022-09-17T07:24:28;99041.41;;;28.21;28.17
34197;BME280;36594;45.192;5.722;2022-09-17T07:27:17;99061.27;;;28.25;28.14
34197;BME280;36594;45.192;5.722;2022-09-17T07:30:07;99063.47;;;28.31;28.08
34197;BME280;36594;45.192;5.722;2022-09-17T07:32:56;99067.33;;;28.32;28.06
34197;BME280;36594;45.192;5.722;2022-09-17T07:35:56;99065.41;;;28.30;28.08
34197;BME280;36594;45.192;5.722;2022-09-17T07:38:45;99066.77;;;28.35;28.11
34197;BME280;36594;45.192;5.722;2022-09-17T07:41:33;99067.03;;;28.34;28.19
34197;BME280;36594;45.192;5.722;2022-09-17T07:44:22;99054.88;;;28.35;28.43
34197;BME280;36594;45.192;5.722;2022-09-17T07:47:17;99062.55;;;28.45;28.98
34197;BME280;36594;45.192;5.722;2022-09-17T07:50:01;99053.41;;;28.52;29.00
34197;BME280;36594;45.192;5.722;2022-09-17T07:52:49;99061.95;;;28.58;29.19
34197;BME280;36594;45.192;5.722;2022-09-17T07:55:40;99073.88;;;28.59;29.18
34197;BME280;36594;45.192;5.722;2022-09-17T07:58:30;99050.34;;;28.61;29.17
34197;BME280;36594;45.192;5.722;2022-09-17T08:01:19;99053.92;;;28.64;28.94
34197;BME280;36594;45.192;5.722;2022-09-17T08:04:09;99052.29;;;28.63;28.88
34197;BME280;36594;45.192;5.722;2022-09-17T08:06:57;99054.76;;;28.65;28.86
34197;BME280;36594;45.192;5.722;2022-09-17T08:09:46;99032.34;;;28.69;28.78
34197;BME280;36594;45.192;5.722;2022-09-17T08:12:34;99031.81;;;28.64;28.69
34197;BME280;36594;45.192;5.722;2022-09-17T08:15:24;99023.22;;;28.68;29.41
34197;BME280;36594;45.192;5.722;2022-09-17T08:18:16;99011.25;;;28.81;30.47
34197;BME280;36594;45.192;5.722;2022-09-17T08:21:07;99038.58;;;28.85;30.72
34197;BME280;36594;45.192;5.722;2022-09-17T08:23:55;99094.45;;;28.87;30.37
34197;BME280;36594;45.192;5.722;2022-09-17T08:26:43;99054.09;;;28.83;29.70
34197;BME280;36594;45.192;5.722;2022-09-17T08:29:32;99056.87;;;28.81;29.38
34197;BME280;36594;45.192;5.722;2022-09-17T08:32:20;99070.17;;;28.76;28.94
34197;BME280;36594;45.192;5.722;2022-09-17T08:35:08;99080.41;;;28.73;28.45
34197;BME280;36594;45.192;5.722;2022-09-17T08:37:57;99087.63;;;28.69;28.25
34197;BME280;36594;45.192;5.722;2022-09-17T08:41:04;99078.23;;;28.70;28.13
34197;BME280;36594;45.192;5.722;2022-09-17T08:47:07;99063.91;;;28.60;28.13
34197;BME280;36594;45.192;5.722;2022-09-17T08:49:57;99067.75;;;28.57;28.19
34197;BME280;36594;45.192;5.722;2022-09-17T08:55:58;99073.28;;;28.54;28.41
34197;BME280;36594;45.192;5.722;2022-09-17T09:02:18;99059.52;;;28.49;28.72
34197;BME280;36594;45.192;5.722;2022-09-17T09:05:29;99081.90;;;28.45;29.11
34197;BME280;36594;45.192;5.722;2022-09-17T09:08:25;99069.75;;;28.46;29.25
34197;BME280;36594;45.192;5.722;2022-09-17T09:11:21;99062.02;;;28.43;29.37
34197;BME280;36594;45.192;5.722;2022-09-17T09:14:06;99055.39;;;28.44;29.39
34197;BME280;36594;45.192;5.722;2022-09-17T09:16:56;99068.92;;;28.46;29.44
34197;BME280;36594;45.192;5.722;2022-09-17T09:19:45;99071.13;;;28.46;29.46
34197;BME280;36594;45.192;5.722;2022-09-17T09:22:50;99069.45;;;28.48;29.50
34197;BME280;36594;45.192;5.722;2022-09-17T09:25:42;99061.71;;;28.47;29.61
34197;BME280;36594;45.192;5.722;2022-09-17T09:34:48;99062.02;;;28.43;29.81
34197;BME280;36594;45.192;5.722;2022-09-17T09:37:39;99049.34;;;28.40;29.90
34197;BME280;36594;45.192;5.722;2022-09-17T09:40:52;99046.00;;;28.40;29.89
34197;BME280;36594;45.192;5.722;2022-09-17T09:43:47;99047.13;;;28.37;29.93
34197;BME280;36594;45.192;5.722;2022-09-17T09:47:00;99028.09;;;28.35;29.96
34197;BME280;36594;45.192;5.722;2022-09-17T09:50:07;99018.66;;;28.39;29.95
34197;BME280;36594;45.192;5.722;2022-09-17T09:53:07;99046.04;;;28.38;30.07
34197;BME280;36594;45.192;5.722;2022-09-17T09:59:14;99020.06;;;28.34;29.99
34197;BME280;36594;45.192;5.722;2022-09-17T10:02:03;99021.72;;;28.37;30.10
34197;BME280;36594;45.192;5.722;2022-09-17T10:04:51;99040.23;;;28.37;30.08
34197;BME280;36594;45.192;5.722;2022-09-17T10:07:45;99028.31;;;28.44;29.94
34197;BME280;36594;45.192;5.722;2022-09-17T10:10:36;99026.94;;;28.41;29.96
34197;BME280;36594;45.192;5.722;2022-09-17T10:13:28;99008.45;;;28.39;29.80
34197;BME280;36594;45.192;5.722;2022-09-17T10:16:25;99017.84;;;28.36;29.55
34197;BME280;36594;45.192;5.722;2022-09-17T10:19:20;99000.73;;;28.34;29.39
34197;BME280;36594;45.192;5.722;2022-09-17T10:22:18;99011.79;;;28.31;29.23
34197;BME280;36594;45.192;5.722;2022-09-17T10:25:23;99017.31;;;28.31;29.02
34197;BME280;36594;45.192;5.722;2022-09-17T10:28:28;99014.84;;;28.30;28.85
34197;BME280;36594;45.192;5.722;2022-09-17T10:31:19;99024.53;;;28.25;28.83
34197;BME280;36594;45.192;5.722;2022-09-17T10:34:11;99023.70;;;28.22;28.94
34197;BME280;36594;45.192;5.722;2022-09-17T10:37:00;99026.20;;;28.23;29.15
34197;BME280;36594;45.192;5.722;2022-09-17T10:39:49;99023.70;;;28.24;29.14
34197;BME280;36594;45.192;5.722;2022-09-17T10:42:40;99029.80;;;28.26;29.12
34197;BME280;36594;45.192;5.722;2022-09-17T10:45:30;99021.21;;;28.28;29.02
34197;BME280;36594;45.192;5.722;2022-09-17T10:48:20;99035.56;;;28.30;28.97
34197;BME280;36594;45.192;5.722;2022-09-17T10:51:18;99026.73;;;28.28;28.88
34197;BME280;36594;45.192;5.722;2022-09-17T10:57:03;99039.46;;;28.26;28.72
34197;BME280;36594;45.192;5.722;2022-09-17T10:59:57;99020.95;;;28.22;28.67
34197;BME280;36594;45.192;5.722;2022-09-17T11:06:11;99038.38;;;28.15;28.56
34197;BME280;36594;45.192;5.722;2022-09-17T11:12:17;99048.34;;;28.11;28.46
34197;BME280;36594;45.192;5.722;2022-09-17T11:18:40;99057.47;;;28.06;28.40
34197;BME280;36594;45.192;5.722;2022-09-17T11:21:44;99053.63;;;28.02;28.37
34197;BME280;36594;45.192;5.722;2022-09-17T11:24:47;99042.88;;;28.00;28.34
34197;BME280;36594;45.192;5.722;2022-09-17T11:27:37;99041.49;;;28.00;28.36
34197;BME280;36594;45.192;5.722;2022-09-17T11:30:29;99048.39;;;28.00;28.29
34197;BME280;36594;45.192;5.722;2022-09-17T11:36:17;99053.34;;;28.01;28.20
34197;BME280;36594;45.192;5.722;2022-09-17T11:39:15;99057.45;;;27.98;28.17
34197;BME280;36594;45.192;5.722;2022-09-17T11:41:59;99064.39;;;28.01;28.10
34197;BME280;36594;45.192;5.722;2022-09-17T11:44:57;99051.96;;;28.01;28.20
34197;BME280;36594;45.192;5.722;2022-09-17T11:47:54;99045.63;;;28.00;28.38
34197;BME280;36594;45.192;5.722;2022-09-17T11:53:46;99072.41;;;28.02;28.65
34197;BME280;36594;45.192;5.722;2022-09-17T11:56:43;99053.34;;;28.03;28.85
34197;BME280;36594;45.192;5.722;2022-09-17T11:59:36;99051.95;;;28.03;29.05
34197;BME280;36594;45.192;5.722;2022-09-17T12:02:44;99055.00;;;28.04;28.92
34197;BME280;36594;45.192;5.722;2022-09-17T12:05:45;99039.22;;;28.13;29.15
34197;BME280;36594;45.192;5.722;2022-09-17T12:08:40;99058.00;;;28.11;29.65
34197;BME280;36594;45.192;5.722;2022-09-17T12:11:41;99038.38;;;28.15;29.70
34197;BME280;36594;45.192;5.722;2022-09-17T12:18:14;99021.80;;;28.17;29.27
34197;BME280;36594;45.192;5.722;2022-09-17T12:20:33;99051.38;;;28.14;28.99
34197;BME280;36594;45.192;5.722;2022-09-17T12:23:32;99042.81;;;28.13;28.89
34197;BME280;36594;45.192;5.722;2022-09-17T12:29:35;99034.23;;;28.15;28.78
34197;BME280;36594;45.192;5.722;2022-09-17T12:39:20;99046.16;;;28.08;28.27
34197;BME280;36594;45.192;5.722;2022-09-17T12:42:31;99037.30;;;28.05;28.25
34197;BME280;36594;45.192;5.722;2022-09-17T12:45:31;99039.81;;;28.04;28.26
34197;BME280;36594;45.192;5.722;2022-09-17T12:57:54;99039.81;;;28.07;28.13
34197;BME280;36594;45.192;5.722;2022-09-17T13:00:51;99041.73;;;28.06;28.09
34197;BME280;36594;45.192;5.722;2022-09-17T13:03:45;99025.99;;;27.97;28.12
34197;BME280;36594;45.192;5.722;2022-09-17T13:07:30;99043.11;;;28.06;28.21
34197;BME280;36594;45.192;5.722;2022-09-17T13:10:01;99041.73;;;28.09;28.29
34197;BME280;36594;45.192;5.722;2022-09-17T13:13:03;99034.53;;;28.11;28.35
34197;BME280;36594;45.192;5.722;2022-09-17T13:24:41;99026.52;;;28.17;28.67
34197;BME280;36594;45.192;5.722;2022-09-17T13:27:32;99041.42;;;28.16;28.68
34197;BME280;36594;45.192;5.722;2022-09-17T13:30:24;99015.47;;;28.17;28.55
34197;BME280;36594;45.192;5.722;2022-09-17T13:33:46;99046.11;;;28.18;28.34
34197;BME280;36594;45.192;5.722;2022-09-17T13:36:33;99037.83;;;28.15;28.25
34197;BME280;36594;45.192;5.722;2022-09-17T13:39:01;99043.89;;;28.17;28.19
34197;BME280;36594;45.192;5.722;2022-09-17T13:41:51;99041.41;;;28.18;28.13
34197;BME280;36594;45.192;5.722;2022-09-17T13:45:02;99040.03;;;28.18;28.17
34197;BME280;36594;45.192;5.722;2022-09-17T13:48:02;99030.08;;;28.17;28.14
34197;BME280;36594;45.192;5.722;2022-09-17T13:50:54;99042.81;;;28.13;28.15
34197;BME280;36594;45.192;5.722;2022-09-17T13:53:50;99051.94;;;28.11;28.20
34197;BME280;36594;45.192;5.722;2022-09-17T13:56:50;99040.88;;;28.14;28.22
34197;BME280;36594;45.192;5.722;2022-09-17T13:59:50;99042.27;;;28.14;28.23
34197;BME280;36594;45.192;5.722;2022-09-17T14:02:32;99049.46;;;28.12;28.15
34197;BME280;36594;45.192;5.722;2022-09-17T14:05:30;99048.87;;;28.13;28.16
34197;BME280;36594;45.192;5.722;2022-09-17T14:08:22;99046.66;;;28.15;28.18
34197;BME280;36594;45.192;5.722;2022-09-17T14:11:18;99048.87;;;28.15;28.18
34197;BME280;36594;45.192;5.722;2022-09-17T14:16:56;99044.48;;;28.14;28.16
34197;BME280;36594;45.192;5.722;2022-09-17T14:19:51;99038.67;;;28.13;28.15
34197;BME280;36594;45.192;5.722;2022-09-17T14:22:40;99041.73;;;28.09;28.18
34197;BME280;36594;45.192;5.722;2022-09-17T14:25:44;99027.33;;;28.15;28.16
34197;BME280;36594;45.192;5.722;2022-09-17T14:28:34;99037.82;;;28.18;28.17
34197;BME280;36594;45.192;5.722;2022-09-17T14:31:26;99037.57;;;28.14;28.16
34197;BME280;36594;45.192;5.722;2022-09-17T14:34:20;99049.72;;;28.13;28.15
34197;BME280;36594;45.192;5.722;2022-09-17T14:37:16;99042.55;;;28.12;28.16
34197;BME280;36594;45.192;5.722;2022-09-17T14:40:10;99042.81;;;28.13;28.23
34197;BME280;36594;45.192;5.722;2022-09-17T14:43:02;99053.85;;;28.16;28.18
34197;BME280;36594;45.192;5.722;2022-09-17T14:45:52;99051.64;;;28.15;28.20
34197;BME280;36594;45.192;5.722;2022-09-17T14:48:41;99045.27;;;28.17;28.13
34197;BME280;36594;45.192;5.722;2022-09-17T14:51:30;99033.67;;;28.18;28.19
34197;BME280;36594;45.192;5.722;2022-09-17T14:54:29;99054.39;;;28.18;28.11
34197;BME280;36594;45.192;5.722;2022-09-17T14:57:24;99055.77;;;28.18;28.07
34197;BME280;36594;45.192;5.722;2022-09-17T15:00:26;99069.58;;;28.20;28.00
34197;BME280;36594;45.192;5.722;2022-09-17T15:03:21;99062.96;;;28.19;28.06
34197;BME280;36594;45.192;5.722;2022-09-17T15:06:21;99063.80;;;28.19;28.02
34197;BME280;36594;45.192;5.722;2022-09-17T15:09:25;99057.70;;;28.17;28.00
34197;BME280;36594;45.192;5.722;2022-09-17T15:12:17;99066.81;;;28.20;27.99
34197;BME280;36594;45.192;5.722;2022-09-17T15:15:16;99069.86;;;28.21;27.89
34197;BME280;36594;45.192;5.722;2022-09-17T15:18:05;99061.29;;;28.20;27.84
34197;BME280;36594;45.192;5.722;2022-09-17T15:20:54;99078.41;;;28.20;27.81
34197;BME280;36594;45.192;5.722;2022-09-17T15:23:46;99077.02;;;28.22;27.80
34197;BME280;36594;45.192;5.722;2022-09-17T15:26:39;99075.38;;;28.24;27.71
34197;BME280;36594;45.192;5.722;2022-09-17T15:29:31;99086.96;;;28.28;27.62
34197;BME280;36594;45.192;5.722;2022-09-17T15:32:19;99083.36;;;28.30;27.55
34197;BME280;36594;45.192;5.722;2022-09-17T15:38:20;99084.98;;;28.34;27.48
34197;BME280;36594;45.192;5.722;2022-09-17T15:41:31;99080.00;;;28.36;27.43
34197;BME280;36594;45.192;5.722;2022-09-17T15:44:23;99090.50;;;28.36;27.43
34197;BME280;36594;45.192;5.722;2022-09-17T15:50:50;99084.42;;;28.39;27.72
34197;BME280;36594;45.192;5.722;2022-09-17T15:53:49;99086.11;;;28.35;27.54
34197;BME280;36594;45.192;5.722;2022-09-17T15:56:38;99091.34;;;28.37;27.55
34197;BME280;36594;45.192;5.722;2022-09-17T15:59:29;99109.55;;;28.40;27.51
34197;BME280;36594;45.192;5.722;2022-09-17T16:02:27;99104.30;;;28.41;27.47
34197;BME280;36594;45.192;5.722;2022-09-17T16:05:41;99105.67;;;28.44;27.43
34197;BME280;36594;45.192;5.722;2022-09-17T16:08:18;99120.88;;;28.44;27.53
34197;BME280;36594;45.192;5.722;2022-09-17T16:11:07;99121.97;;;28.45;27.63
34197;BME280;36594;45.192;5.722;2022-09-17T16:13:59;99111.21;;;28.41;27.78
34197;BME280;36594;45.192;5.722;2022-09-17T16:16:48;99111.20;;;28.44;27.91
34197;BME280;36594;45.192;5.722;2022-09-17T16:19:37;99120.34;;;28.37;28.29
34197;BME280;36594;45.192;5.722;2022-09-17T16:22:26;99110.11;;;28.45;28.29
34197;BME280;36594;45.192;5.722;2022-09-17T16:25:17;99118.93;;;28.49;28.24
34197;BME280;36594;45.192;5.722;2022-09-17T16:28:14;99128.02;;;28.52;28.16
34197;BME280;36594;45.192;5.722;2022-09-17T16:31:04;99125.79;;;28.54;28.08
34197;BME280;36594;45.192;5.722;2022-09-17T16:33:53;99129.98;;;28.49;28.11
34197;BME280;36594;45.192;5.722;2022-09-17T16:36:42;99134.39;;;28.48;28.13
34197;BME280;36594;45.192;5.722;2022-09-17T16:39:30;99122.79;;;28.48;28.14
34197;BME280;36594;45.192;5.722;2022-09-17T16:42:19;99132.23;;;28.35;28.27
34197;BME280;36594;45.192;5.722;2022-09-17T16:45:08;99123.96;;;28.30;28.33
34197;BME280;36594;45.192;5.722;2022-09-17T16:47:57;99128.94;;;28.30;28.38
34197;BME280;36594;45.192;5.722;2022-09-17T16:50:46;99130.88;;;28.22;28.45
34197;BME280;36594;45.192;5.722;2022-09-17T16:53:34;99130.89;;;28.17;28.53
34197;BME280;36594;45.192;5.722;2022-09-17T16:56:22;99125.11;;;28.14;28.55
34197;BME280;36594;45.192;5.722;2022-09-17T16:59:11;99137.26;;;28.10;28.61
34197;BME280;36594;45.192;5.722;2022-09-17T17:01:59;99137.01;;;28.06;28.65